Time;durP1;ratioP1;P1;durP2;ratioP2;P2;SDS_P1;SDS_P2;PMS_P1;PMS_P2;Temp;Humidity;BMP_temperature;BMP_pressure;BME280_temperature;BME280_humidity;BME280_pressure;Samples;Min_cycle;Max_cycle;Signal;HPM_P1;HPM_P2
2023/12/02 00:00:00;;;;;;;5.55;4.30;;;;;;;1.94;100.00;95920.91;1225746;75;2910414;-67
2023/12/02 00:02:33;;;;;;;4.10;3.70;;;;;;;2.05;100.00;95896.84;1224213;75;2915154;-66
2023/12/02 00:05:07;;;;;;;5.50;4.60;;;;;;;1.95;100.00;95900.81;1223955;75;2935799;-67
2023/12/02 00:07:39;;;;;;;4.75;3.95;;;;;;;2.24;100.00;95912.91;1225671;75;2895170;-65
2023/12/02 00:10:15;;;;;;;3.90;3.00;;;;;;;2.30;100.00;95905.63;1226050;67;2914278;-66
2023/12/02 00:12:50;;;;;;;3.20;2.90;;;;;;;2.35;100.00;95896.88;1225240;75;2913985;-65
2023/12/02 00:15:23;;;;;;;3.05;2.45;;;;;;;2.39;100.00;95904.81;1225175;75;2916587;-67
2023/12/02 00:17:56;;;;;;;3.25;2.35;;;;;;;2.43;100.00;95903.41;1224886;75;2920948;-64
2023/12/02 00:20:29;;;;;;;2.50;2.20;;;;;;;2.45;100.00;95911.03;1224994;75;2915008;-64
2023/12/02 00:23:02;;;;;;;2.55;2.10;;;;;;;2.41;100.00;95891.59;1225275;75;2915066;-65
2023/12/02 00:25:34;;;;;;;2.45;2.25;;;;;;;2.46;100.00;95891.69;1224450;75;2939245;-67
2023/12/02 00:28:10;;;;;;;5.20;3.60;;;;;;;2.06;100.00;95897.56;1225347;75;2922460;-65
2023/12/02 00:30:43;;;;;;;5.95;4.45;;;;;;;1.97;100.00;95897.63;1225876;75;2916655;-67
2023/12/02 00:33:16;;;;;;;4.50;4.10;;;;;;;2.35;100.00;95891.47;1224656;75;2915149;-65
2023/12/02 00:35:46;;;;;;;4.00;2.95;;;;;;;2.33;100.00;95878.47;1225029;75;2910884;-64
2023/12/02 00:38:19;;;;;;;5.00;3.70;;;;;;;2.34;100.00;95898.84;1221922;75;3124279;-66
2023/12/02 00:40:51;;;;;;;4.60;3.50;;;;;;;2.08;100.00;95882.41;1225702;75;2926062;-67
2023/12/02 00:43:27;;;;;;;4.90;4.05;;;;;;;1.96;100.00;95882.66;1225285;75;2922940;-67
2023/12/02 00:46:00;;;;;;;6.10;4.85;;;;;;;2.16;100.00;95896.28;1225155;75;2917971;-64
2023/12/02 00:48:32;;;;;;;4.40;3.75;;;;;;;2.30;100.00;95873.22;1225398;75;2921190;-67
2023/12/02 00:51:06;;;;;;;3.85;3.35;;;;;;;2.13;100.00;95892.56;1223985;75;2924333;-68
2023/12/02 00:53:38;;;;;;;4.40;3.10;;;;;;;2.38;100.00;95884.41;1225069;75;2911969;-65
2023/12/02 00:56:13;;;;;;;3.85;3.20;;;;;;;2.33;100.00;95880.38;1224976;75;2911893;-65
2023/12/02 00:58:48;;;;;;;3.60;2.90;;;;;;;2.47;100.00;95873.53;1225086;75;2921346;-65
2023/12/02 01:01:24;;;;;;;3.50;2.80;;;;;;;2.27;100.00;95866.81;1226287;75;2851328;-65
2023/12/02 01:03:57;;;;;;;3.05;2.70;;;;;;;2.45;100.00;95863.16;1225519;75;2910070;-67
2023/12/02 01:06:29;;;;;;;3.80;2.40;;;;;;;2.46;100.00;95872.78;1225616;75;2916223;-66
2023/12/02 01:09:02;;;;;;;3.15;2.30;;;;;;;2.39;100.00;95881.25;1225065;67;2913352;-64
2023/12/02 01:11:35;;;;;;;4.40;3.20;;;;;;;2.09;100.00;95883.91;1224574;75;2927752;-66
2023/12/02 01:14:10;;;;;;;4.10;2.90;;;;;;;2.22;100.00;95886.34;1225058;75;2918999;-66
2023/12/02 01:16:43;;;;;;;4.95;3.70;;;;;;;2.10;100.00;95882.69;1225799;75;2911970;-66
2023/12/02 01:19:16;;;;;;;4.05;3.40;;;;;;;2.23;100.00;95874.34;1225241;75;2920736;-65
2023/12/02 01:21:49;;;;;;;3.15;2.70;;;;;;;2.37;100.00;95855.91;1225915;75;2909323;-66
2023/12/02 01:24:22;;;;;;;3.55;2.80;;;;;;;2.40;100.00;95871.94;1225361;75;2914644;-68
2023/12/02 01:26:55;;;;;;;3.90;3.15;;;;;;;2.40;100.00;95892.78;1225096;75;2923225;-65
2023/12/02 01:29:30;;;;;;;3.05;2.75;;;;;;;2.52;100.00;95889.06;1224880;75;2922075;-67
2023/12/02 01:32:03;;;;;;;2.80;2.20;;;;;;;2.22;100.00;95872.13;1225255;75;2921981;-66
2023/12/02 01:34:36;;;;;;;5.55;3.90;;;;;;;2.22;100.00;95864.00;1224661;75;2924724;-66
2023/12/02 01:37:09;;;;;;;5.55;3.60;;;;;;;2.36;100.00;95868.69;1224720;75;2913536;-64
2023/12/02 01:39:41;;;;;;;3.45;2.80;;;;;;;2.44;100.00;95863.66;1225353;75;2914870;-65
2023/12/02 01:42:14;;;;;;;3.80;2.95;;;;;;;2.43;100.00;95854.81;1224276;75;2923698;-65
2023/12/02 01:44:50;;;;;;;2.85;2.55;;;;;;;2.51;100.00;95849.78;1224668;75;2927643;-66
2023/12/02 01:47:22;;;;;;;2.40;2.20;;;;;;;2.54;100.00;95860.38;1224937;75;2916041;-66
2023/12/02 01:49:57;;;;;;;3.30;2.35;;;;;;;2.50;100.00;95864.47;1224127;75;2922141;-66
2023/12/02 01:52:30;;;;;;;2.70;2.10;;;;;;;2.58;100.00;95868.31;1224101;75;2928048;-66
2023/12/02 01:55:03;;;;;;;3.15;2.25;;;;;;;2.59;100.00;95864.41;1225069;75;2922594;-67
2023/12/02 01:57:36;;;;;;;2.60;2.15;;;;;;;2.52;100.00;95865.50;1225362;75;2913751;-66
2023/12/02 02:00:14;;;;;;;3.55;2.50;;;;;;;2.54;100.00;95857.69;1225262;75;2918897;-67
2023/12/02 02:02:47;;;;;;;4.00;2.30;;;;;;;2.55;100.00;95856.50;1225289;75;2925372;-67
2023/12/02 02:05:20;;;;;;;3.35;2.45;;;;;;;2.60;100.00;95857.78;1224785;75;2917800;-65
2023/12/02 02:07:52;;;;;;;2.30;2.05;;;;;;;2.55;100.00;95856.50;1224169;75;2915176;-66
2023/12/02 02:10:26;;;;;;;2.90;2.25;;;;;;;2.59;100.00;95842.78;1224225;75;2936711;-64
2023/12/02 02:12:58;;;;;;;2.45;2.05;;;;;;;2.52;100.00;95854.69;1225266;75;2910549;-64
2023/12/02 02:15:34;;;;;;;3.05;2.35;;;;;;;2.49;100.00;95841.41;1224369;75;2915648;-67
2023/12/02 02:18:07;;;;;;;3.10;2.30;;;;;;;2.43;100.00;95838.59;1224671;75;2915810;-68
2023/12/02 02:20:39;;;;;;;4.55;2.70;;;;;;;2.49;100.00;95834.03;1225324;75;2912638;-67
2023/12/02 02:23:15;;;;;;;4.45;2.50;;;;;;;2.53;100.00;95809.56;1224853;75;2915962;-65
2023/12/02 02:25:48;;;;;;;3.25;2.40;;;;;;;2.59;100.00;95813.06;1224873;75;2920397;-65
2023/12/02 02:28:24;;;;;;;2.65;2.30;;;;;;;2.59;100.00;95801.53;1224202;75;2922016;-65
2023/12/02 02:30:58;;;;;;;2.60;2.00;;;;;;;2.51;100.00;95793.81;1224375;75;2914760;-65
2023/12/02 02:33:31;;;;;;;1.90;1.75;;;;;;;2.61;100.00;95813.34;1225408;75;2913090;-66
2023/12/02 02:36:04;;;;;;;2.45;2.25;;;;;;;2.50;100.00;95792.31;1224794;75;2921218;-65
2023/12/02 02:38:40;;;;;;;2.40;2.20;;;;;;;2.43;100.00;95791.94;1224295;75;2921584;-64
2023/12/02 02:41:12;;;;;;;3.05;2.40;;;;;;;2.35;100.00;95784.22;1224968;75;2918289;-65
2023/12/02 02:43:45;;;;;;;4.95;3.20;;;;;;;2.22;100.00;95778.38;1224553;75;2923389;-66
2023/12/02 02:46:18;;;;;;;5.35;3.60;;;;;;;2.29;100.00;95785.34;1224469;75;2923898;-63
2023/12/02 02:48:51;;;;;;;4.05;3.35;;;;;;;2.20;100.00;95791.59;1225493;75;2914957;-64
2023/12/02 02:51:24;;;;;;;4.00;2.80;;;;;;;2.21;100.00;95805.81;1225188;75;2915866;-65
2023/12/02 02:53:59;;;;;;;3.20;2.90;;;;;;;2.20;100.00;95796.25;1224719;75;2920887;-66
2023/12/02 02:56:32;;;;;;;4.10;3.40;;;;;;;2.05;100.00;95788.13;1225073;75;2915353;-65
2023/12/02 02:59:06;;;;;;;4.50;2.90;;;;;;;2.40;100.00;95772.00;1225417;75;2916507;-64
2023/12/02 03:01:39;;;;;;;4.55;3.00;;;;;;;2.46;100.00;95769.41;1225787;75;2924086;-65
2023/12/02 03:04:12;;;;;;;2.95;2.40;;;;;;;2.24;100.00;95767.13;1225676;75;2919232;-65
2023/12/02 03:06:45;;;;;;;4.60;3.90;;;;;;;2.20;100.00;95769.97;1225215;75;2912480;-68
2023/12/02 03:09:21;;;;;;;5.75;3.50;;;;;;;2.16;100.00;95777.50;1224117;75;2917915;-65
2023/12/02 03:11:54;;;;;;;4.15;3.50;;;;;;;2.22;100.00;95785.72;1224710;75;2917515;-65
2023/12/02 03:14:26;;;;;;;3.70;2.95;;;;;;;2.33;100.00;95789.34;1225264;75;2928686;-66
2023/12/02 03:16:59;;;;;;;3.95;2.90;;;;;;;2.29;100.00;95777.25;1225872;75;2915890;-65
2023/12/02 03:19:32;;;;;;;2.90;2.60;;;;;;;2.29;100.00;95766.47;1225374;75;2921572;-65
2023/12/02 03:22:07;;;;;;;3.30;3.00;;;;;;;2.29;100.00;95769.16;1224933;75;2918967;-65
2023/12/02 03:24:42;;;;;;;3.25;2.95;;;;;;;2.09;100.00;95792.16;1225709;75;2913019;-66
2023/12/02 03:27:15;;;;;;;3.40;2.85;;;;;;;2.11;100.00;95780.88;1224936;75;2919229;-65
2023/12/02 03:29:48;;;;;;;4.40;3.50;;;;;;;2.17;100.00;95770.91;1225241;75;2918006;-67
2023/12/02 03:32:21;;;;;;;3.90;2.80;;;;;;;2.30;100.00;95770.63;1225015;75;2915547;-63
2023/12/02 03:34:54;;;;;;;3.05;2.65;;;;;;;2.41;100.00;95759.28;1225218;75;2923738;-63
2023/12/02 03:37:26;;;;;;;2.80;2.20;;;;;;;2.42;100.00;95761.50;1223038;75;2918889;-67
2023/12/02 03:40:02;;;;;;;3.20;2.90;;;;;;;2.25;100.00;95765.88;1225132;75;2921221;-66
2023/12/02 03:42:35;;;;;;;2.40;2.20;;;;;;;2.39;100.00;95746.22;1225167;75;2918977;-65
2023/12/02 03:45:09;;;;;;;3.75;3.05;;;;;;;2.14;100.00;95793.44;1225474;75;2914064;-64
2023/12/02 03:47:42;;;;;;;5.95;4.20;;;;;;;1.79;100.00;95809.50;1225075;75;2916963;-65
2023/12/02 03:50:15;;;;;;;5.35;4.30;;;;;;;1.83;100.00;95796.59;1223559;67;2920124;-65
2023/12/02 03:52:48;;;;;;;4.45;3.90;;;;;;;1.98;100.00;95799.31;1223832;75;2916710;-65
2023/12/02 03:55:24;;;;;;;4.40;3.85;;;;;;;2.16;100.00;95787.56;1225346;75;2912626;-64
2023/12/02 03:57:57;;;;;;;4.50;3.70;;;;;;;1.97;100.00;95798.53;1224645;75;2917589;-64
2023/12/02 04:00:29;;;;;;;4.10;3.25;;;;;;;2.11;100.00;95792.41;1224820;75;2923099;-66
2023/12/02 04:03:02;;;;;;;4.30;3.35;;;;;;;2.26;100.00;95788.97;1225303;75;2918812;-67
2023/12/02 04:05:35;;;;;;;3.55;3.10;;;;;;;2.33;100.00;95785.88;1224993;75;2919340;-68
2023/12/02 04:08:09;;;;;;;4.15;2.90;;;;;;;2.27;100.00;95793.16;1225465;75;2918336;-64
2023/12/02 04:10:44;;;;;;;2.80;2.40;;;;;;;2.47;100.00;95785.13;1225139;75;2914746;-64
2023/12/02 04:13:17;;;;;;;3.00;2.60;;;;;;;2.36;100.00;95768.78;1224801;75;2929787;-64
2023/12/02 04:15:50;;;;;;;2.80;2.30;;;;;;;2.38;100.00;95787.94;1225055;75;2917577;-65
2023/12/02 04:18:23;;;;;;;3.45;2.70;;;;;;;2.37;100.00;95772.22;1225512;75;2925481;-65
2023/12/02 04:20:56;;;;;;;3.55;2.75;;;;;;;2.38;100.00;95771.72;1224772;75;2965189;-64
2023/12/02 04:23:29;;;;;;;3.45;3.00;;;;;;;2.08;100.00;95762.91;1225141;75;2915484;-65
2023/12/02 04:26:06;;;;;;;4.30;3.55;;;;;;;2.21;100.00;95776.13;1225134;75;2914941;-66
2023/12/02 04:28:39;;;;;;;3.40;3.10;;;;;;;2.13;100.00;95787.28;1224500;75;2916958;-65
2023/12/02 04:31:12;;;;;;;3.90;3.25;;;;;;;2.31;100.00;95780.97;1224664;75;2923085;-66
2023/12/02 04:33:45;;;;;;;4.50;4.00;;;;;;;2.08;100.00;95790.63;1224253;75;2918882;-67
2023/12/02 04:36:18;;;;;;;5.50;4.65;;;;;;;1.87;100.00;95794.44;1224451;75;2916377;-65
2023/12/02 04:38:50;;;;;;;4.80;4.10;;;;;;;2.19;100.00;95786.63;1225512;75;2915987;-64
2023/12/02 04:41:26;;;;;;;3.50;3.20;;;;;;;2.29;100.00;95788.78;1224549;75;2928407;-64
2023/12/02 04:43:59;;;;;;;3.55;3.10;;;;;;;2.39;100.00;95786.75;1224884;75;2932811;-66
2023/12/02 04:46:32;;;;;;;3.15;2.85;;;;;;;2.35;100.00;95794.28;1224963;75;2930767;-64
2023/12/02 04:49:05;;;;;;;4.75;4.25;;;;;;;2.05;100.00;95796.97;1224484;75;2923253;-67
2023/12/02 04:51:38;;;;;;;4.75;4.10;;;;;;;2.33;100.00;95802.09;1224140;75;2919014;-65
2023/12/02 04:54:10;;;;;;;4.30;3.65;;;;;;;2.48;100.00;95794.75;1223598;75;2917447;-67
2023/12/02 04:56:46;;;;;;;3.55;3.20;;;;;;;2.49;100.00;95793.53;1224777;75;2922111;-65
2023/12/02 04:59:19;;;;;;;4.35;3.60;;;;;;;2.43;100.00;95800.81;1224741;75;2923102;-65
2023/12/02 05:01:52;;;;;;;4.00;3.20;;;;;;;2.50;100.00;95794.25;1225305;75;2933456;-65
2023/12/02 05:04:25;;;;;;;4.35;3.05;;;;;;;2.51;100.00;95796.50;1224768;75;2919286;-66
2023/12/02 05:06:58;;;;;;;3.15;2.70;;;;;;;2.60;100.00;95806.47;1222947;75;2928535;-64
2023/12/02 05:09:31;;;;;;;2.90;2.50;;;;;;;2.61;100.00;95812.63;1224960;75;2915044;-65
2023/12/02 05:12:07;;;;;;;3.40;3.10;;;;;;;2.53;100.00;95823.06;1224259;75;2923309;-65
2023/12/02 05:14:41;;;;;;;4.85;4.20;;;;;;;2.24;100.00;95807.59;1224761;75;2925178;-66
2023/12/02 05:17:14;;;;;;;5.25;4.30;;;;;;;2.09;100.00;95792.16;1224395;75;2923476;-64
2023/12/02 05:19:47;;;;;;;5.95;4.55;;;;;;;2.21;100.00;95793.06;1225180;75;2918491;-66
2023/12/02 05:22:19;;;;;;;4.15;3.70;;;;;;;2.31;100.00;95801.84;1224358;75;2907744;-67
2023/12/02 05:24:52;;;;;;;4.35;3.75;;;;;;;2.20;100.00;95807.03;1223314;75;2934864;-64
2023/12/02 05:27:28;;;;;;;3.65;3.35;;;;;;;2.30;100.00;95805.72;1224577;75;2919903;-65
2023/12/02 05:30:01;;;;;;;4.50;4.10;;;;;;;2.25;100.00;95798.28;1224802;75;2922416;-65
2023/12/02 05:32:34;;;;;;;3.40;3.10;;;;;;;2.50;100.00;95802.38;1224889;75;2921593;-66
2023/12/02 05:35:08;;;;;;;3.10;2.70;;;;;;;2.63;100.00;95799.38;1224578;75;2921783;-66
2023/12/02 05:37:42;;;;;;;2.50;2.30;;;;;;;2.65;100.00;95797.69;1224384;75;2915916;-65
2023/12/02 05:40:16;;;;;;;2.70;2.50;;;;;;;2.67;100.00;95798.00;1224235;75;2925201;-65
2023/12/02 05:42:51;;;;;;;4.10;2.90;;;;;;;2.51;100.00;95799.19;1224316;75;2923809;-64
2023/12/02 05:45:24;;;;;;;5.50;4.45;;;;;;;2.11;100.00;95813.25;1224584;75;2918976;-65
2023/12/02 05:47:57;;;;;;;9.50;7.25;;;;;;;1.86;100.00;95807.19;1224253;75;2920040;-67
2023/12/02 05:50:30;;;;;;;9.80;7.40;;;;;;;1.77;100.00;95795.72;1225658;75;2915613;-67
2023/12/02 05:53:04;;;;;;;10.10;6.75;;;;;;;1.76;100.00;95791.53;1224228;75;2917236;-67
2023/12/02 05:55:37;;;;;;;10.80;6.50;;;;;;;1.77;100.00;95814.59;1223341;75;2916479;-65
2023/12/02 05:58:12;;;;;;;6.80;6.15;;;;;;;1.98;100.00;95816.22;1224466;75;2916617;-65
2023/12/02 06:00:45;;;;;;;6.20;5.60;;;;;;;2.06;100.00;95813.91;1224102;75;2922623;-67
2023/12/02 06:03:18;;;;;;;6.05;4.90;;;;;;;2.18;100.00;95814.84;1223716;75;2920526;-67
2023/12/02 06:05:51;;;;;;;5.70;4.50;;;;;;;2.34;100.00;95817.09;1224725;75;2917014;-65
2023/12/02 06:08:24;;;;;;;6.75;5.50;;;;;;;2.16;100.00;95809.16;1224223;75;2916982;-66
2023/12/02 06:10:56;;;;;;;4.95;4.45;;;;;;;2.42;100.00;95828.25;1224467;75;2921692;-65
2023/12/02 06:13:32;;;;;;;6.65;5.85;;;;;;;2.09;100.00;95838.03;1224741;75;2922162;-67
2023/12/02 06:16:05;;;;;;;5.55;5.05;;;;;;;2.09;100.00;95811.03;1224449;75;2922206;-63
2023/12/02 06:18:38;;;;;;;7.05;5.55;;;;;;;1.99;100.00;95804.22;1224465;75;2929481;-63
2023/12/02 06:21:13;;;;;;;7.30;6.25;;;;;;;1.78;100.00;95797.97;1223714;75;2928684;-65
2023/12/02 06:23:46;;;;;;;8.80;6.95;;;;;;;1.70;100.00;95792.16;1223589;75;2932890;-67
2023/12/02 06:26:19;;;;;;;7.15;6.30;;;;;;;1.70;100.00;95788.72;1225266;75;2918337;-65
2023/12/02 06:28:54;;;;;;;6.95;6.15;;;;;;;1.77;100.00;95796.47;1224853;75;2922769;-63
2023/12/02 06:31:27;;;;;;;6.85;6.05;;;;;;;1.67;100.00;95798.50;1221451;75;3028334;-68
2023/12/02 06:34:00;;;;;;;8.85;6.50;;;;;;;1.74;100.00;95810.88;1225481;75;2911919;-63
2023/12/02 06:36:32;;;;;;;6.60;5.80;;;;;;;2.04;100.00;95794.72;1224787;75;2953024;-65
2023/12/02 06:39:07;;;;;;;5.30;4.80;;;;;;;2.27;100.00;95793.91;1224860;75;2923200;-66
2023/12/02 06:41:41;;;;;;;6.05;4.85;;;;;;;1.84;100.00;95798.06;1224877;75;2917449;-65
2023/12/02 06:44:17;;;;;;;6.70;6.00;;;;;;;1.62;100.00;95788.34;1225324;75;2917694;-66
2023/12/02 06:46:50;;;;;;;6.80;6.05;;;;;;;1.86;100.00;95795.66;1225168;75;2917401;-65
2023/12/02 06:49:23;;;;;;;5.65;5.10;;;;;;;1.97;100.00;95792.41;1226011;75;2916008;-66
2023/12/02 06:51:56;;;;;;;4.95;4.45;;;;;;;2.07;100.00;95793.81;1223954;75;2919694;-66
2023/12/02 06:54:28;;;;;;;4.50;3.50;;;;;;;2.12;100.00;95795.88;1224990;75;2918609;-65
2023/12/02 06:57:01;;;;;;;4.70;3.85;;;;;;;2.02;100.00;95816.81;1223492;75;2916701;-67
2023/12/02 06:59:37;;;;;;;3.30;3.00;;;;;;;2.20;100.00;95805.06;1223247;75;2915533;-67
2023/12/02 07:02:11;;;;;;;5.25;4.50;;;;;;;1.90;100.00;95794.25;1224809;75;2920065;-66
2023/12/02 07:04:45;;;;;;;6.85;5.90;;;;;;;1.70;100.00;95781.38;1224833;75;2918252;-66
2023/12/02 07:07:18;;;;;;;7.50;6.65;;;;;;;1.94;100.00;95767.09;1224399;75;2928801;-64
2023/12/02 07:09:51;;;;;;;6.45;5.30;;;;;;;2.13;100.00;95768.41;1225178;75;2914593;-64
2023/12/02 07:12:24;;;;;;;6.50;5.80;;;;;;;1.69;100.00;95782.59;1225201;75;2917963;-65
2023/12/02 07:14:59;;;;;;;9.85;7.75;;;;;;;1.65;100.00;95773.94;1224658;75;2916198;-66
2023/12/02 07:17:32;;;;;;;7.95;7.15;;;;;;;1.76;100.00;95775.38;1225339;75;2924291;-65
2023/12/02 07:20:06;;;;;;;8.20;7.05;;;;;;;1.82;100.00;95781.59;1225103;75;2920899;-63
2023/12/02 07:22:39;;;;;;;7.70;6.80;;;;;;;1.70;100.00;95786.78;1224154;75;2921248;-65
2023/12/02 07:25:12;;;;;;;5.80;5.20;;;;;;;1.81;100.00;95793.59;1224838;75;2928063;-66
2023/12/02 07:27:45;;;;;;;7.25;6.05;;;;;;;2.07;100.00;95810.00;1224686;75;2918455;-66
2023/12/02 07:30:21;;;;;;;5.05;4.55;;;;;;;2.06;100.00;95811.22;1224304;75;2923035;-65
2023/12/02 07:32:54;;;;;;;7.70;6.10;;;;;;;2.00;100.00;95813.81;1224843;75;2921127;-66
2023/12/02 07:35:27;;;;;;;7.00;6.10;;;;;;;2.03;100.00;95807.47;1223704;75;2921652;-65
2023/12/02 07:38:00;;;;;;;5.60;5.10;;;;;;;2.19;100.00;95802.84;1224790;75;2912022;-65
2023/12/02 07:40:32;;;;;;;5.50;4.95;;;;;;;1.97;100.00;95789.69;1224519;75;2931263;-66
2023/12/02 07:43:06;;;;;;;5.85;5.35;;;;;;;1.85;100.00;95792.22;1224166;75;2928467;-65
2023/12/02 07:45:41;;;;;;;5.65;5.15;;;;;;;2.02;100.00;95792.50;1225037;75;2918886;-66
2023/12/02 07:48:14;;;;;;;5.10;4.25;;;;;;;2.22;100.00;95789.16;1224842;75;2911723;-64
2023/12/02 07:50:47;;;;;;;4.10;3.65;;;;;;;2.18;100.00;95785.16;1224627;75;2928478;-66
2023/12/02 07:53:20;;;;;;;4.05;3.65;;;;;;;2.08;100.00;95798.75;1224680;75;2923984;-64
2023/12/02 07:55:53;;;;;;;6.15;4.30;;;;;;;2.05;100.00;95804.34;1225597;75;2916860;-64
2023/12/02 07:58:26;;;;;;;5.50;4.35;;;;;;;1.87;100.00;95803.25;1224129;75;2921504;-65
2023/12/02 08:01:01;;;;;;;4.05;3.60;;;;;;;2.12;100.00;95798.56;1225037;75;2916837;-66
2023/12/02 08:03:34;;;;;;;3.50;3.20;;;;;;;2.27;100.00;95793.91;1225488;67;2914809;-65
2023/12/02 08:06:08;;;;;;;6.90;5.40;;;;;;;1.91;100.00;95786.91;1224556;75;2924007;-65
2023/12/02 08:08:40;;;;;;;6.45;5.35;;;;;;;2.10;100.00;95790.94;1224833;75;2916596;-66
2023/12/02 08:11:13;;;;;;;4.75;4.20;;;;;;;2.18;100.00;95794.00;1224687;75;2913059;-64
2023/12/02 08:13:46;;;;;;;4.85;4.35;;;;;;;1.97;100.00;95793.13;1223883;75;2918926;-64
2023/12/02 08:16:21;;;;;;;4.30;3.75;;;;;;;2.16;100.00;95796.41;1224749;75;2917800;-67
2023/12/02 08:18:57;;;;;;;5.45;4.90;;;;;;;1.89;100.00;95805.50;1225026;75;2925945;-66
2023/12/02 08:21:30;;;;;;;4.95;4.30;;;;;;;1.99;100.00;95804.22;1224616;75;2927513;-63
2023/12/02 08:24:03;;;;;;;7.45;5.55;;;;;;;1.99;100.00;95801.50;1224913;75;2919553;-66
2023/12/02 08:26:36;;;;;;;5.20;4.65;;;;;;;1.99;100.00;95792.69;1223960;75;2915036;-66
2023/12/02 08:29:08;;;;;;;6.80;5.20;;;;;;;1.76;100.00;95794.25;1224646;75;2920311;-65
2023/12/02 08:31:44;;;;;;;5.10;4.40;;;;;;;1.93;100.00;95814.19;1225060;75;2921789;-66
2023/12/02 08:34:17;;;;;;;6.40;5.60;;;;;;;1.72;100.00;95823.34;1224213;67;2921585;-65
2023/12/02 08:36:50;;;;;;;10.20;6.70;;;;;;;1.80;100.00;95822.50;1223668;67;2914096;-65
2023/12/02 08:39:22;;;;;;;7.65;6.85;;;;;;;1.75;100.00;95815.06;1223838;75;2918762;-64
2023/12/02 08:41:55;;;;;;;7.80;7.05;;;;;;;1.58;100.00;95819.38;1223649;75;2922833;-65
2023/12/02 08:44:28;;;;;;;8.25;6.55;;;;;;;1.57;100.00;95812.53;1223611;75;2917834;-65
2023/12/02 08:47:06;;;;;;;8.00;6.90;;;;;;;1.39;100.00;95807.97;1224220;75;2917200;-64
2023/12/02 08:49:38;;;;;;;11.95;8.70;;;;;;;1.31;100.00;95804.91;1224619;75;2915243;-65
2023/12/02 08:52:11;;;;;;;9.55;7.25;;;;;;;1.71;100.00;95825.31;1223899;75;2913991;-63
2023/12/02 08:54:46;;;;;;;9.30;6.65;;;;;;;1.87;100.00;95837.59;1223530;75;2928748;-64
2023/12/02 08:57:19;;;;;;;7.30;5.75;;;;;;;1.60;100.00;95857.44;1224031;75;2920835;-64
2023/12/02 08:59:51;;;;;;;8.55;6.95;;;;;;;1.61;100.00;95853.53;1223803;75;2916580;-65
2023/12/02 09:02:27;;;;;;;7.50;6.75;;;;;;;1.81;100.00;95845.59;1223988;75;2921598;-64
2023/12/02 09:05:02;;;;;;;7.70;6.25;;;;;;;1.61;100.00;95834.66;1224174;75;2915548;-66
2023/12/02 09:07:35;;;;;;;7.25;6.00;;;;;;;1.61;100.00;95832.72;1223749;75;2919146;-65
2023/12/02 09:10:09;;;;;;;7.05;5.75;;;;;;;1.53;100.00;95834.25;1224125;75;2915870;-67
2023/12/02 09:12:42;;;;;;;6.10;5.45;;;;;;;1.67;100.00;95833.56;1224442;75;2911965;-66
2023/12/02 09:15:42;;;;;;;5.90;4.95;;;;;;;1.88;100.00;95828.31;1224099;75;2922347;-67
2023/12/02 09:18:31;;;;;;;6.00;4.70;;;;;;;1.80;100.00;95827.16;1224673;75;2919179;-65
2023/12/02 09:21:04;;;;;;;6.20;4.30;;;;;;;1.87;100.00;95816.75;1224230;75;2925759;-65
2023/12/02 09:23:37;;;;;;;5.05;4.30;;;;;;;1.98;100.00;95812.78;1224900;75;2922140;-66
2023/12/02 09:26:29;;;;;;;4.20;3.70;;;;;;;1.76;100.00;95813.13;1224006;75;2916597;-66
2023/12/02 09:29:02;;;;;;;5.25;4.50;;;;;;;1.91;100.00;95811.19;1224722;75;2915444;-65
2023/12/02 09:31:36;;;;;;;5.35;4.75;;;;;;;1.67;100.00;95817.38;1223938;75;2920992;-65
2023/12/02 09:34:58;;;;;;;11.90;9.20;;;;;;;1.38;100.00;95828.06;1224816;75;2923634;-67
2023/12/02 09:37:57;;;;;;;17.60;12.00;;;;;;;1.69;100.00;95835.81;1224126;75;2922405;-65
2023/12/02 09:41:09;;;;;;;19.70;12.40;;;;;;;1.36;100.00;95836.59;1225005;75;2922642;-68
2023/12/02 09:43:57;;;;;;;17.05;12.55;;;;;;;1.10;100.00;95833.59;1224094;75;2921264;-66
2023/12/02 09:46:36;;;;;;;17.60;12.60;;;;;;;0.99;100.00;95817.22;1225102;75;2926249;-66
2023/12/02 09:49:53;;;;;;;12.90;10.60;;;;;;;1.47;100.00;95801.78;1224081;75;2916896;-65
2023/12/02 09:52:58;;;;;;;16.55;12.55;;;;;;;1.25;100.00;95801.31;1223107;75;2921538;-64
2023/12/02 09:55:39;;;;;;;12.40;9.75;;;;;;;1.62;100.00;95799.13;1224436;75;2917164;-66
2023/12/02 09:58:26;;;;;;;11.20;8.60;;;;;;;1.63;100.00;95810.66;1223827;75;2905711;-67
2023/12/02 10:01:08;;;;;;;11.50;9.20;;;;;;;1.18;100.00;95824.00;1224314;75;2914701;-66
2023/12/02 10:04:09;;;;;;;16.45;11.75;;;;;;;1.27;100.00;95840.13;1224282;75;2917271;-64
2023/12/02 10:06:53;;;;;;;19.05;13.00;;;;;;;1.43;100.00;95847.03;1224791;75;2925607;-63
2023/12/02 10:09:54;;;;;;;14.55;11.40;;;;;;;1.25;100.00;95857.94;1223864;75;2926170;-65
2023/12/02 10:12:51;;;;;;;11.85;8.90;;;;;;;1.31;100.00;95868.84;1224430;75;2928298;-65
2023/12/02 10:15:30;;;;;;;8.95;8.05;;;;;;;1.32;100.00;95862.97;1222571;75;2919118;-64
2023/12/02 10:18:13;;;;;;;8.70;7.65;;;;;;;1.47;100.00;95866.50;1223832;75;2921598;-63
2023/12/02 10:20:47;;;;;;;9.25;8.15;;;;;;;1.44;100.00;95864.72;1224224;75;2925770;-65
2023/12/02 10:23:32;;;;;;;8.85;7.40;;;;;;;1.44;100.00;95862.03;1223631;75;2923075;-64
2023/12/02 10:26:15;;;;;;;7.00;5.80;;;;;;;1.71;100.00;95884.66;1223934;75;2918885;-66
2023/12/02 10:29:01;;;;;;;5.80;5.20;;;;;;;1.48;100.00;95886.88;1223882;75;2917466;-64
2023/12/02 10:31:38;;;;;;;6.45;5.60;;;;;;;1.57;100.00;95886.06;1223951;75;2923335;-63
2023/12/02 10:34:26;;;;;;;6.05;5.10;;;;;;;1.61;100.00;95896.69;1224260;75;2923291;-64
2023/12/02 10:37:03;;;;;;;5.50;4.90;;;;;;;1.70;100.00;95891.22;1224579;75;2916825;-64
2023/12/02 10:39:46;;;;;;;4.25;3.65;;;;;;;1.83;100.00;95864.03;1223399;75;2924572;-64
2023/12/02 10:42:24;;;;;;;4.65;4.20;;;;;;;1.88;100.00;95839.09;1224196;75;2919280;-64
2023/12/02 10:45:06;;;;;;;4.70;3.80;;;;;;;1.88;100.00;95849.91;1224196;75;2926657;-64
2023/12/02 10:47:39;;;;;;;4.75;3.85;;;;;;;1.64;100.00;95883.03;1224753;75;2923625;-64
2023/12/02 10:50:13;;;;;;;9.80;8.80;;;;;;;0.87;100.00;95933.97;1224644;75;2919572;-64
2023/12/02 10:53:04;;;;;;;9.00;8.00;;;;;;;1.07;100.00;95961.16;1223576;75;2899604;-64
2023/12/02 10:55:43;;;;;;;10.45;9.35;;;;;;;1.05;100.00;95942.00;1224262;75;2923905;-65
2023/12/02 10:58:18;;;;;;;11.80;10.05;;;;;;;0.63;100.00;95935.38;1223804;75;2921626;-64
2023/12/02 11:00:56;;;;;;;10.55;8.85;;;;;;;0.45;100.00;95921.19;1224472;75;2920446;-64
2023/12/02 11:03:38;;;;;;;8.70;7.80;;;;;;;0.80;100.00;95933.09;1224826;75;2915524;-67
2023/12/02 11:06:20;;;;;;;7.90;7.05;;;;;;;1.18;100.00;95941.81;1222794;75;2917079;-64
2023/12/02 11:09:03;;;;;;;7.25;6.55;;;;;;;1.09;100.00;95958.78;1223532;75;2933423;-65
2023/12/02 11:11:59;;;;;;;10.95;8.45;;;;;;;0.73;100.00;95965.75;1224105;75;2919692;-65
2023/12/02 11:14:41;;;;;;;11.20;7.65;;;;;;;1.08;100.00;95975.38;1224405;75;2915429;-65
2023/12/02 11:17:32;;;;;;;8.05;6.30;;;;;;;1.27;100.00;95990.28;1223794;75;2921934;-64
2023/12/02 11:20:20;;;;;;;7.50;5.55;;;;;;;1.34;100.00;96008.84;1223002;75;2939983;-65
2023/12/02 11:23:40;;;;;;;7.00;5.60;;;;;;;1.61;100.00;96012.66;1224417;75;2924971;-65
2023/12/02 11:26:30;;;;;;;6.25;5.00;;;;;;;1.47;100.00;96011.38;1224819;75;2927990;-65
2023/12/02 11:29:29;;;;;;;6.15;5.25;;;;;;;1.51;100.00;95990.38;1224470;75;2918668;-67
2023/12/02 11:32:20;;;;;;;5.25;4.55;;;;;;;1.42;100.00;95987.69;1224312;75;2923744;-66
2023/12/02 11:35:11;;;;;;;4.15;3.50;;;;;;;1.44;100.00;95983.38;1225131;75;2927471;-65
2023/12/02 11:38:05;;;;;;;5.00;3.45;;;;;;;1.69;100.00;95976.81;1224816;75;2919857;-64
2023/12/02 11:40:53;;;;;;;4.85;3.80;;;;;;;1.17;100.00;95968.03;1224160;75;2928682;-67
2023/12/02 11:43:46;;;;;;;6.70;3.60;;;;;;;1.24;100.00;95959.59;1224310;75;2925473;-65
2023/12/02 11:46:26;;;;;;;5.35;3.85;;;;;;;1.69;100.00;95963.31;1223854;75;2916474;-66
2023/12/02 11:49:17;;;;;;;3.80;3.35;;;;;;;1.37;100.00;95972.91;1224380;75;2924749;-66
2023/12/02 11:52:06;;;;;;;4.55;3.65;;;;;;;1.08;100.00;95975.38;1224682;75;2919022;-64
2023/12/02 11:54:57;;;;;;;5.25;3.60;;;;;;;1.65;100.00;95945.81;1223915;75;2926927;-66
2023/12/02 11:57:44;;;;;;;5.10;3.30;;;;;;;1.72;100.00;95901.56;1224215;75;2922722;-66